createdAt,value
2023-03-17T00:01:21.677Z,45.03
2023-03-17T00:03:51.494Z,45.10
2023-03-17T00:06:25.924Z,45.13
2023-03-17T00:08:53.740Z,45.30
2023-03-17T00:11:22.073Z,45.03
2023-03-17T00:13:49.984Z,45.33
2023-03-17T00:16:21.984Z,45.37
2023-03-17T00:18:50.991Z,45.43
2023-03-17T00:21:25.318Z,45.47
2023-03-17T00:23:53.220Z,45.30
2023-03-17T00:26:21.248Z,45.27
2023-03-17T00:28:50.894Z,45.13
2023-03-17T00:31:22.150Z,45.27
2023-03-17T00:33:52.767Z,45.07
2023-03-17T00:36:23.916Z,45.40
2023-03-17T00:38:52.488Z,45.03
2023-03-17T00:41:20.361Z,45.43
2023-03-17T00:43:48.167Z,45.07
2023-03-17T00:46:18.848Z,45.13
2023-03-17T00:48:48.515Z,45.20
2023-03-17T00:51:16.466Z,45.23
2023-03-17T00:53:44.749Z,45.20
2023-03-17T00:56:15.406Z,45.10
2023-03-17T00:58:43.720Z,45.30
2023-03-17T01:01:12.264Z,45.20
2023-03-17T01:03:41.373Z,45.33
2023-03-17T01:06:13.942Z,45.33
2023-03-17T01:08:42.914Z,45.20
2023-03-17T01:11:16.004Z,45.33
2023-03-17T01:13:43.905Z,45.27
2023-03-17T01:16:12.685Z,45.17
2023-03-17T01:18:41.239Z,45.20
2023-03-17T01:21:10.673Z,45.20
2023-03-17T01:23:38.787Z,45.20
2023-03-17T01:26:07.679Z,45.27
2023-03-17T01:28:35.924Z,45.40
2023-03-17T01:31:04.915Z,45.07
2023-03-17T01:33:33.515Z,45.30
2023-03-17T01:36:01.460Z,45.10
2023-03-17T01:38:31.167Z,45.07
2023-03-17T01:40:59.206Z,45.27
2023-03-17T01:43:29.232Z,45.47
2023-03-17T01:46:24.986Z,45.47
2023-03-17T01:49:11.161Z,45.10
2023-03-17T01:51:47.063Z,45.40
2023-03-17T01:54:23.129Z,45.03
2023-03-17T01:56:53.211Z,45.20
2023-03-17T01:59:26.998Z,45.10
2023-03-17T02:02:02.173Z,45.17
2023-03-17T02:04:31.181Z,45.10
2023-03-17T02:06:59.500Z,45.10
2023-03-17T02:09:29.762Z,44.97
2023-03-17T02:11:59.640Z,45.20
2023-03-17T02:14:27.702Z,44.93
2023-03-17T02:16:55.628Z,45.23
2023-03-17T02:19:23.665Z,45.00
2023-03-17T02:21:55.166Z,45.27
2023-03-17T02:24:33.056Z,45.23
2023-03-17T02:27:06.464Z,45.40
2023-03-17T02:29:37.675Z,45.60
2023-03-17T02:32:06.466Z,45.07
2023-03-17T02:34:35.092Z,45.00
2023-03-17T02:37:05.610Z,45.00
2023-03-17T02:39:33.461Z,45.00
2023-03-17T02:42:01.312Z,45.03
2023-03-17T02:44:29.113Z,45.47
2023-03-17T02:46:56.938Z,45.30
2023-03-17T02:49:27.061Z,45.00
2023-03-17T02:51:55.254Z,45.20
2023-03-17T02:54:24.570Z,45.17
2023-03-17T02:56:52.678Z,45.27
2023-03-17T02:59:20.633Z,45.30
2023-03-17T03:01:50.453Z,45.13
2023-03-17T03:04:19.021Z,45.10
2023-03-17T03:06:47.518Z,45.13
2023-03-17T03:09:17.688Z,44.97
2023-03-17T03:11:47.414Z,45.07
2023-03-17T03:14:15.836Z,44.70
2023-03-17T03:16:44.294Z,45.20
2023-03-17T03:19:12.161Z,45.17
2023-03-17T03:21:40.024Z,45.03
2023-03-17T03:24:08.484Z,44.83
2023-03-17T03:26:36.951Z,44.90
2023-03-17T03:29:06.764Z,45.17
2023-03-17T03:31:34.882Z,45.00
2023-03-17T03:34:02.725Z,44.63
2023-03-17T03:36:30.628Z,45.00
2023-03-17T03:38:59.684Z,44.87
2023-03-17T03:41:28.185Z,44.70
2023-03-17T03:43:55.982Z,45.07
2023-03-17T03:46:26.561Z,44.67
2023-03-17T03:48:54.625Z,45.00
2023-03-17T03:51:22.480Z,44.87
2023-03-17T03:53:50.296Z,44.73
2023-03-17T03:56:18.239Z,44.70
2023-03-17T03:58:46.193Z,45.07
2023-03-17T04:01:14.428Z,44.70
2023-03-17T04:03:43.591Z,45.00
2023-03-17T04:06:11.719Z,44.97
2023-03-17T04:08:39.527Z,44.67
2023-03-17T04:11:08.625Z,44.77
2023-03-17T04:13:36.456Z,44.77
2023-03-17T04:16:04.635Z,44.90
2023-03-17T04:18:32.604Z,44.63
2023-03-17T04:21:02.578Z,44.67
2023-03-17T04:23:31.385Z,44.60
2023-03-17T04:25:59.338Z,44.80
2023-03-17T04:28:27.147Z,44.53
2023-03-17T04:30:54.940Z,44.50
2023-03-17T04:33:22.756Z,44.60
2023-03-17T04:35:50.659Z,44.40
2023-03-17T04:38:19.807Z,44.30
2023-03-17T04:40:48.073Z,44.40
2023-03-17T04:43:16.732Z,44.67
2023-03-17T04:45:44.583Z,44.50
2023-03-17T04:48:12.455Z,44.40
2023-03-17T04:50:40.338Z,44.50
2023-03-17T04:53:08.982Z,44.17
2023-03-17T04:55:38.288Z,44.60
2023-03-17T04:58:06.097Z,44.20
2023-03-17T05:00:38.567Z,44.23
2023-03-17T05:03:16.806Z,44.57
2023-03-17T05:05:53.813Z,44.30
2023-03-17T05:08:21.719Z,44.47
2023-03-17T05:10:51.102Z,44.60
2023-03-17T05:13:19.708Z,44.30
2023-03-17T05:15:48.335Z,44.40
2023-03-17T05:18:16.265Z,44.60
2023-03-17T05:20:44.207Z,44.60
2023-03-17T05:23:12.179Z,44.33
2023-03-17T05:25:41.573Z,44.50
2023-03-17T05:28:10.995Z,44.37
2023-03-17T05:30:38.980Z,44.23
2023-03-17T05:33:07.610Z,44.47
2023-03-17T05:35:35.719Z,44.50
2023-03-17T05:38:03.595Z,44.43
2023-03-17T05:40:31.720Z,44.50
2023-03-17T05:42:59.747Z,44.40
2023-03-17T05:45:29.342Z,44.23
2023-03-17T05:47:57.331Z,44.40
2023-03-17T05:50:25.383Z,44.47
2023-03-17T05:52:53.477Z,44.30
2023-03-17T05:55:21.602Z,44.40
2023-03-17T05:57:49.440Z,44.27
2023-03-17T06:00:18.720Z,44.37
2023-03-17T06:02:48.261Z,44.17
2023-03-17T06:05:16.304Z,44.23
2023-03-17T06:07:54.012Z,44.40
2023-03-17T06:10:23.080Z,44.40
2023-03-17T06:12:50.974Z,44.27
2023-03-17T06:15:18.974Z,44.47
2023-03-17T06:17:48.305Z,44.47
2023-03-17T06:20:16.266Z,44.37
2023-03-17T06:23:00.366Z,44.60
2023-03-17T06:25:31.603Z,44.37
2023-03-17T06:28:02.282Z,44.40
2023-03-17T06:30:30.727Z,44.47
2023-03-17T06:33:00.001Z,44.43
2023-03-17T06:35:28.359Z,44.50
2023-03-17T06:37:56.269Z,44.60
2023-03-17T06:40:24.320Z,44.43
2023-03-17T06:42:53.156Z,44.40
2023-03-17T06:45:21.034Z,44.80
2023-03-17T06:47:48.946Z,44.57
2023-03-17T06:50:18.495Z,44.70
2023-03-17T06:52:47.012Z,44.57
2023-03-17T06:55:15.023Z,44.70
2023-03-17T06:57:42.854Z,44.80
2023-03-17T07:00:12.565Z,44.83
2023-03-17T07:02:40.531Z,44.90
2023-03-17T07:05:09.087Z,44.77
2023-03-17T07:07:38.664Z,45.20
2023-03-17T07:10:10.169Z,45.10
2023-03-17T07:12:38.195Z,45.27
2023-03-17T07:15:07.090Z,45.50
2023-03-17T07:17:35.014Z,46.00
2023-03-17T07:20:02.933Z,45.87
2023-03-17T07:22:30.894Z,46.30
2023-03-17T07:25:00.388Z,46.17
2023-03-17T07:27:28.360Z,46.20
2023-03-17T07:29:56.630Z,46.70
2023-03-17T07:32:24.577Z,47.00
2023-03-17T07:34:52.848Z,47.47
2023-03-17T07:37:21.251Z,47.77
2023-03-17T07:39:49.246Z,48.07
2023-03-17T07:42:18.611Z,47.77
2023-03-17T07:44:46.645Z,47.83
2023-03-17T07:47:14.797Z,48.03
2023-03-17T07:49:43.036Z,47.70
2023-03-17T07:52:12.551Z,48.27
2023-03-17T07:54:43.031Z,48.50
2023-03-17T07:57:11.550Z,48.60
2023-03-17T07:59:41.529Z,48.20
2023-03-17T08:02:15.638Z,48.57
2023-03-17T08:04:43.730Z,48.47
2023-03-17T08:07:12.644Z,48.70
2023-03-17T08:09:41.731Z,48.97
2023-03-17T08:12:10.419Z,48.87
2023-03-17T08:14:39.878Z,49.43
2023-03-17T08:17:07.918Z,49.50
2023-03-17T08:19:35.912Z,49.70
2023-03-17T08:22:03.874Z,49.73
2023-03-17T08:24:32.452Z,49.60
2023-03-17T08:27:00.976Z,49.20
2023-03-17T08:29:29.869Z,49.50
2023-03-17T08:31:59.062Z,49.53
2023-03-17T08:34:27.149Z,49.37
2023-03-17T08:36:54.942Z,49.40
2023-03-17T08:39:22.782Z,49.63
2023-03-17T08:41:53.312Z,49.23
2023-03-17T08:44:21.731Z,49.67
2023-03-17T08:46:50.063Z,50.20
2023-03-17T08:49:19.321Z,50.10
2023-03-17T08:51:47.427Z,50.40
2023-03-17T08:54:15.715Z,50.63
2023-03-17T08:56:43.568Z,50.43
2023-03-17T08:59:12.282Z,50.53
2023-03-17T09:01:40.237Z,50.50
2023-03-17T09:04:08.864Z,51.00
2023-03-17T09:06:40.834Z,50.77
2023-03-17T09:09:10.864Z,50.90
2023-03-17T09:11:38.787Z,50.70
2023-03-17T09:14:06.642Z,50.57
2023-03-17T09:16:34.798Z,50.47
2023-03-17T09:19:03.674Z,50.73
2023-03-17T09:21:31.898Z,50.40
2023-03-17T09:24:02.691Z,51.13
2023-03-17T09:26:30.654Z,50.90
2023-03-17T09:28:58.486Z,51.30
2023-03-17T09:31:26.647Z,50.97
2023-03-17T09:33:54.589Z,51.47
2023-03-17T09:36:22.426Z,50.07
2023-03-17T09:38:51.068Z,50.30
2023-03-17T09:41:56.899Z,50.70
2023-03-17T09:44:42.294Z,49.93
2023-03-17T09:47:26.754Z,50.93
2023-03-17T09:49:58.953Z,50.47
2023-03-17T09:52:31.099Z,50.20
2023-03-17T09:54:59.756Z,50.20
2023-03-17T09:57:33.583Z,50.30
2023-03-17T10:00:06.389Z,50.57
2023-03-17T10:02:37.412Z,50.57
2023-03-17T10:05:18.336Z,50.17
2023-03-17T10:07:51.341Z,50.57
2023-03-17T10:10:29.647Z,50.17
2023-03-17T10:13:05.213Z,50.40
2023-03-17T10:15:38.718Z,50.30
2023-03-17T10:18:11.178Z,50.47
2023-03-17T10:20:51.666Z,49.87
2023-03-17T10:23:22.794Z,49.90
2023-03-17T10:25:50.890Z,50.10
2023-03-17T10:28:27.514Z,49.83
2023-03-17T10:30:58.455Z,50.23
2023-03-17T10:33:27.414Z,50.27
2023-03-17T10:35:55.314Z,50.17
2023-03-17T10:38:24.148Z,50.27
2023-03-17T10:40:58.150Z,49.97
2023-03-17T10:43:30.705Z,50.00
2023-03-17T10:46:03.370Z,50.17
2023-03-17T10:48:35.843Z,50.33
2023-03-17T10:51:08.717Z,50.23
2023-03-17T10:53:43.223Z,50.30
2023-03-17T10:56:20.243Z,50.33
2023-03-17T10:58:51.360Z,50.27
2023-03-17T11:01:23.761Z,50.33
2023-03-17T11:03:51.739Z,50.37
2023-03-17T11:06:22.422Z,49.73
2023-03-17T11:08:53.612Z,49.77
2023-03-17T11:11:27.008Z,50.20
2023-03-17T11:14:04.159Z,50.23
2023-03-17T11:16:35.801Z,50.10
2023-03-17T11:19:05.366Z,49.90
2023-03-17T11:21:36.244Z,50.27
2023-03-17T11:24:09.170Z,50.27
2023-03-17T11:26:53.498Z,50.23
2023-03-17T11:29:39.377Z,50.07
2023-03-17T11:32:26.629Z,50.30
2023-03-17T11:35:15.001Z,49.77
2023-03-17T11:38:00.780Z,50.17
2023-03-17T11:40:33.721Z,50.10
2023-03-17T11:43:13.538Z,50.33
2023-03-17T11:45:51.765Z,49.73
2023-03-17T11:48:31.599Z,50.63
2023-03-17T11:51:04.327Z,51.07
2023-03-17T11:53:53.693Z,50.93
2023-03-17T11:56:24.884Z,50.50
2023-03-17T11:58:57.218Z,50.87
2023-03-17T12:01:30.046Z,50.47
2023-03-17T12:04:11.308Z,50.37
2023-03-17T12:06:45.865Z,50.40
2023-03-17T12:09:25.869Z,50.60
2023-03-17T12:11:56.718Z,51.00
2023-03-17T12:14:28.944Z,50.70
2023-03-17T12:17:06.104Z,51.17
2023-03-17T12:19:42.276Z,50.80
2023-03-17T12:22:22.569Z,51.17
2023-03-17T12:25:04.564Z,51.20
2023-03-17T12:27:39.396Z,50.70
2023-03-17T12:30:18.353Z,50.53
2023-03-17T12:32:54.899Z,51.13
2023-03-17T12:35:29.258Z,51.07
2023-03-17T12:37:59.232Z,51.03
2023-03-17T12:40:33.524Z,51.23
2023-03-17T12:43:18.159Z,51.17
2023-03-17T12:46:04.620Z,50.87
2023-03-17T12:48:46.169Z,50.97
2023-03-17T12:51:40.330Z,50.87
2023-03-17T12:54:15.199Z,51.00
2023-03-17T12:56:47.258Z,50.63
2023-03-17T12:59:19.533Z,51.20
2023-03-17T13:01:57.321Z,51.23
2023-03-17T13:04:28.861Z,51.23
2023-03-17T13:07:05.228Z,51.07
2023-03-17T13:09:48.803Z,51.10
2023-03-17T13:12:37.384Z,51.00
2023-03-17T13:15:24.003Z,51.00
2023-03-17T13:17:52.795Z,51.17
2023-03-17T13:20:36.682Z,51.37
2023-03-17T13:23:13.728Z,50.90
2023-03-17T13:25:53.252Z,50.97
2023-03-17T13:28:26.994Z,50.53
2023-03-17T13:31:14.050Z,51.47
2023-03-17T13:33:45.629Z,51.07
2023-03-17T13:36:40.024Z,51.27
2023-03-17T13:39:27.488Z,51.30
2023-03-17T13:42:17.922Z,51.23
2023-03-17T13:45:09.737Z,51.63
2023-03-17T13:47:42.407Z,51.27
2023-03-17T13:50:15.142Z,51.47
2023-03-17T13:52:49.306Z,51.70
2023-03-17T13:55:41.328Z,51.07
2023-03-17T13:58:27.379Z,51.40
2023-03-17T14:01:02.471Z,51.10
2023-03-17T14:03:36.559Z,51.10
2023-03-17T14:06:08.150Z,50.77
2023-03-17T14:08:39.771Z,51.30
2023-03-17T14:11:16.494Z,51.50
2023-03-17T14:13:49.539Z,51.40
2023-03-17T14:16:25.151Z,51.77
2023-03-17T14:18:58.891Z,51.50
2023-03-17T14:21:31.807Z,51.90
2023-03-17T14:24:02.365Z,51.60
2023-03-17T14:26:33.243Z,51.40
2023-03-17T14:29:02.400Z,51.10
2023-03-17T14:31:30.856Z,51.07
2023-03-17T14:33:59.971Z,50.90
2023-03-17T14:36:29.351Z,51.27
2023-03-17T14:38:57.986Z,50.83
2023-03-17T14:41:28.364Z,50.63
2023-03-17T14:43:59.570Z,50.87
2023-03-17T14:46:31.125Z,50.83
2023-03-17T14:49:01.429Z,50.87
2023-03-17T14:51:33.481Z,50.73
2023-03-17T14:54:03.906Z,51.23
2023-03-17T14:56:37.459Z,51.10
2023-03-17T14:59:17.337Z,50.73
2023-03-17T15:01:47.447Z,51.53
2023-03-17T15:04:18.581Z,50.60
2023-03-17T15:06:51.895Z,51.23
2023-03-17T15:09:25.754Z,50.90
2023-03-17T15:11:56.623Z,51.47
2023-03-17T15:14:30.815Z,51.23
2023-03-17T15:16:58.775Z,51.37
2023-03-17T15:19:29.793Z,51.20
2023-03-17T15:22:00.181Z,50.70
2023-03-17T15:24:39.193Z,50.83
2023-03-17T15:27:16.187Z,50.97
2023-03-17T15:29:44.699Z,50.90
2023-03-17T15:32:15.162Z,51.37
2023-03-17T15:34:43.258Z,51.67
2023-03-17T15:37:17.126Z,50.90
2023-03-17T15:39:45.473Z,51.17
2023-03-17T15:42:15.655Z,50.90
2023-03-17T15:44:43.520Z,50.37
2023-03-17T15:47:14.828Z,50.97
2023-03-17T15:49:43.032Z,51.00
2023-03-17T15:52:16.894Z,50.67
2023-03-17T15:54:46.738Z,50.67
2023-03-17T15:57:16.354Z,51.13
2023-03-17T15:59:44.568Z,51.10
2023-03-17T16:02:28.853Z,50.60
2023-03-17T16:04:57.101Z,50.73
2023-03-17T16:07:25.905Z,50.70
2023-03-17T16:09:53.944Z,51.07
2023-03-17T16:12:23.121Z,50.63
2023-03-17T16:14:51.426Z,50.63
2023-03-17T16:17:26.497Z,50.73
2023-03-17T16:19:55.886Z,50.93
2023-03-17T16:22:39.381Z,50.90
2023-03-17T16:25:24.835Z,50.50
2023-03-17T16:27:56.008Z,50.20
2023-03-17T16:30:26.281Z,50.80
2023-03-17T16:32:55.164Z,50.60
2023-03-17T16:35:25.884Z,50.60
2023-03-17T16:37:54.462Z,51.03
2023-03-17T16:40:25.806Z,50.37
2023-03-17T16:42:55.616Z,50.83
2023-03-17T16:45:28.326Z,50.83
2023-03-17T16:47:57.580Z,50.30
2023-03-17T16:50:27.058Z,50.27
2023-03-17T16:52:55.406Z,50.43
2023-03-17T16:55:24.773Z,50.07
2023-03-17T16:57:54.316Z,50.17
2023-03-17T17:00:26.951Z,50.77
2023-03-17T17:02:55.569Z,50.63
2023-03-17T17:05:25.972Z,49.87
2023-03-17T17:07:56.213Z,50.40
2023-03-17T17:10:25.352Z,50.20
2023-03-17T17:12:53.462Z,50.17
2023-03-17T17:15:24.054Z,49.90
2023-03-17T17:17:54.986Z,50.20
2023-03-17T17:20:25.306Z,50.13
2023-03-17T17:22:53.200Z,50.43
2023-03-17T17:25:21.206Z,49.80
2023-03-17T17:27:49.742Z,50.23
2023-03-17T17:30:19.753Z,49.80
2023-03-17T17:32:49.436Z,50.03
2023-03-17T17:35:17.626Z,49.77
2023-03-17T17:37:45.760Z,49.83
2023-03-17T17:40:16.192Z,49.90
2023-03-17T17:42:46.214Z,49.70
2023-03-17T17:45:15.208Z,50.00
2023-03-17T17:47:43.388Z,50.03
2023-03-17T17:50:17.876Z,49.37
2023-03-17T17:52:47.624Z,50.17
2023-03-17T17:55:15.939Z,49.50
2023-03-17T17:57:44.039Z,49.33
2023-03-17T18:00:16.640Z,49.80
2023-03-17T18:02:44.823Z,49.93
2023-03-17T18:05:14.410Z,49.43
2023-03-17T18:07:42.404Z,49.33
2023-03-17T18:10:16.778Z,49.50
2023-03-17T18:12:44.613Z,49.63
2023-03-17T18:15:12.944Z,49.30
2023-03-17T18:17:41.286Z,49.57
2023-03-17T18:20:12.127Z,49.30
2023-03-17T18:22:41.775Z,49.70
2023-03-17T18:25:11.047Z,49.87
2023-03-17T18:27:39.493Z,49.40
2023-03-17T18:30:10.390Z,49.57
2023-03-17T18:32:38.934Z,49.83
2023-03-17T18:35:11.654Z,49.47
2023-03-17T18:37:41.075Z,49.77
2023-03-17T18:40:15.070Z,49.30
2023-03-17T18:42:43.297Z,49.30
2023-03-17T18:45:12.580Z,50.03
2023-03-17T18:47:41.706Z,49.27
2023-03-17T18:50:13.620Z,49.47
2023-03-17T18:52:44.805Z,49.47
2023-03-17T18:55:14.330Z,49.43
2023-03-17T18:57:44.430Z,49.33
2023-03-17T19:00:14.690Z,49.07
2023-03-17T19:02:42.853Z,49.43
2023-03-17T19:05:11.446Z,49.40
2023-03-17T19:07:40.587Z,49.40
2023-03-17T19:10:11.923Z,49.53
2023-03-17T19:12:40.410Z,49.73
2023-03-17T19:15:10.503Z,49.13
2023-03-17T19:17:38.875Z,49.93
2023-03-17T19:20:08.559Z,49.50
2023-03-17T19:22:36.393Z,49.30
2023-03-17T19:25:04.777Z,49.23
2023-03-17T19:27:33.951Z,49.40
2023-03-17T19:30:01.809Z,49.80
2023-03-17T19:32:29.662Z,49.17
2023-03-17T19:34:57.565Z,49.60
2023-03-17T19:37:25.908Z,49.43
2023-03-17T19:39:53.749Z,49.60
2023-03-17T19:42:21.983Z,49.50
2023-03-17T19:44:51.130Z,49.20
2023-03-17T19:47:19.475Z,49.23
2023-03-17T19:49:47.474Z,49.23
2023-03-17T19:52:15.415Z,49.20
2023-03-17T19:54:45.650Z,48.83
2023-03-17T19:57:14.017Z,49.30
2023-03-17T19:59:42.250Z,49.07
2023-03-17T20:02:14.549Z,49.23
2023-03-17T20:04:42.791Z,49.00
2023-03-17T20:07:10.750Z,49.43
2023-03-17T20:09:39.275Z,49.00
2023-03-17T20:12:07.319Z,48.87
2023-03-17T20:14:35.804Z,48.90
2023-03-17T20:17:03.621Z,48.90
2023-03-17T20:19:32.856Z,48.90
2023-03-17T20:22:00.665Z,48.93
2023-03-17T20:24:31.274Z,48.70
2023-03-17T20:26:59.617Z,48.57
2023-03-17T20:29:28.054Z,48.60
2023-03-17T20:31:55.967Z,48.83
2023-03-17T20:34:24.400Z,49.17
2023-03-17T20:36:53.604Z,48.77
2023-03-17T20:39:21.402Z,48.37
2023-03-17T20:41:50.770Z,48.77
2023-03-17T20:44:19.572Z,49.03
2023-03-17T20:46:47.526Z,48.47
2023-03-17T20:49:16.839Z,48.83
2023-03-17T20:51:46.158Z,48.37
2023-03-17T20:54:15.452Z,49.03
2023-03-17T20:56:45.531Z,49.07
2023-03-17T20:59:13.398Z,48.90
2023-03-17T21:01:42.444Z,48.87
2023-03-17T21:04:15.552Z,48.80
2023-03-17T21:06:43.669Z,48.73
2023-03-17T21:09:11.761Z,48.87
2023-03-17T21:11:42.091Z,49.07
2023-03-17T21:14:11.661Z,49.07
2023-03-17T21:16:42.189Z,48.83
2023-03-17T21:19:13.489Z,49.00
2023-03-17T21:21:41.342Z,48.83
2023-03-17T21:24:25.700Z,48.53
2023-03-17T21:26:54.959Z,48.83
2023-03-17T21:29:23.283Z,48.77
2023-03-17T21:31:51.435Z,48.33
2023-03-17T21:34:19.774Z,48.70
2023-03-17T21:36:47.721Z,48.43
2023-03-17T21:39:16.104Z,48.67
2023-03-17T21:41:44.436Z,48.97
2023-03-17T21:44:15.750Z,49.00
2023-03-17T21:46:43.755Z,48.80
2023-03-17T21:49:11.599Z,48.70
2023-03-17T21:51:39.601Z,48.30
2023-03-17T21:54:07.471Z,49.07
2023-03-17T21:56:35.415Z,48.40
2023-03-17T21:59:03.292Z,48.47
2023-03-17T22:01:33.148Z,48.87
2023-03-17T22:04:01.126Z,48.83
2023-03-17T22:06:29.460Z,48.17
2023-03-17T22:08:57.341Z,48.17
2023-03-17T22:11:25.209Z,49.27
2023-03-17T22:13:53.114Z,48.53
2023-03-17T22:16:21.473Z,48.90
2023-03-17T22:18:51.499Z,48.87
2023-03-17T22:21:20.405Z,49.00
2023-03-17T22:23:48.479Z,48.53
2023-03-17T22:26:18.806Z,48.47
2023-03-17T22:28:48.560Z,48.17
2023-03-17T22:31:18.559Z,48.77
2023-03-17T22:33:47.762Z,48.47
2023-03-17T22:36:17.782Z,48.57
2023-03-17T22:38:45.806Z,48.57
2023-03-17T22:41:15.826Z,48.63
2023-03-17T22:43:44.188Z,48.63
2023-03-17T22:46:12.787Z,48.57
2023-03-17T22:48:41.268Z,48.87
2023-03-17T22:51:11.117Z,48.37
2023-03-17T22:53:41.125Z,48.50
2023-03-17T22:56:10.833Z,48.73
2023-03-17T22:58:38.995Z,48.47
2023-03-17T23:01:07.857Z,48.23
2023-03-17T23:03:36.943Z,48.40
2023-03-17T23:06:06.173Z,48.57
2023-03-17T23:08:36.014Z,48.57
2023-03-17T23:11:10.448Z,48.37
2023-03-17T23:13:39.690Z,48.53
2023-03-17T23:16:08.637Z,48.63
2023-03-17T23:18:36.676Z,48.40
2023-03-17T23:21:06.644Z,48.50
2023-03-17T23:23:35.219Z,48.17
2023-03-17T23:26:03.153Z,48.77
2023-03-17T23:28:32.750Z,48.60
2023-03-17T23:31:02.575Z,48.60
2023-03-17T23:33:30.876Z,48.23
2023-03-17T23:35:58.780Z,48.13
2023-03-17T23:38:27.566Z,48.53
2023-03-17T23:40:57.392Z,48.47
2023-03-17T23:43:25.909Z,48.50
2023-03-17T23:45:55.121Z,48.10
2023-03-17T23:48:23.275Z,48.70
2023-03-17T23:50:53.526Z,48.70
2023-03-17T23:53:22.240Z,48.50
2023-03-17T23:55:51.296Z,48.50
2023-03-17T23:58:19.261Z,48.37
